Beijing, Beijing

1:07 PM CST on July 26, 2014 (GMT +0800)
Beijing Capital (ZBAA) Elev 115 ft | 40.07 °N, 116.59 °E | Change Station

Current weather conditions updated 7 minutes ago

Clear
Clear
93 °F
Feels Like 96 °F
N
4
Wind Variable Wind from Variable

Today is forecast to be Warmer than yesterday.

Today
High -- | Low -- °F
--% Chance of Precip.
Yesterday
High -- | Low -- °F
Precip. -- in
5:05 AM 7:33 PM
Waning Crescent, 0% visible
Pressure 29.77 in
Visibility 3.7 miles
Clouds
Heat Index 96 °F
Dew Point 66 °F
Humidity 41%
Rainfall 0.00 in
Snow Depth Not available.
UV Not available.
Pollen Not available.
Air Quality Not available.
Flu Activity Not available.
METAR ZBAA 260500Z VRB02MPS 6000 NSC 34/19 Q1008 NOSIG

More Conditions Fewer Conditions

Pressure 29.77 in
Visibility 3.7 miles
Clouds
Heat Index 96 °F
Dew Point 66 °F
Humidity 41%
Rainfall 0.00 in
Snow Depth Not available.
UV Not available.
Pollen Not available.
Air Quality Not available.
Flu Activity Not available.
METAR ZBAA 260500Z VRB02MPS 6000 NSC 34/19 Q1008 NOSIG

More Conditions Fewer Conditions

10-Day Weather Forecast

Almanac

Astronomy

Jul. 26, 2014 Rise Set
Actual Time 5:05 AM CST 7:33 PM CST
Civil Twilight 4:34 AM CST 8:04 PM CST
Nautical Twilight 3:56 AM CST 8:43 PM CST
Astronomical Twilight 3:13 AM CST 9:25 PM CST
Moon 4:27 AM CST 6:47 PM CST
Length of Visible Light 15h 29m
Length of Day
14h 27m
Tomorrow will be 1m 48s shorter.
Waning Crescent, 0% of the Moon is Illuminated
Today
Waning Crescent
Jul 26
New
Aug 3
First Quarter
Aug 10
Full
Aug 17
Last Quarter

Yesterday's Extremes

Country Highs Country Lows

Community

WunderPhotos

Upload Photos

1,737,521 photos uploaded!

Nearby

Snow Depth

Not available.

Earthquake Activity

City Distance Mag. Time & Date
No recent earthquake activity has been reported nearby.
Minimum magnitude displayed is 2.5.

Coastal Water Temperatures

Place Temperature
No Stations Reporting

Nearby Weather Stations

There are no personal weather stations in this area.